Fontana, California
Current Conditions -  °F | °C
As of 11:53 PM on Wednesday 26 Nov 2014 (Local Time) from KONT Reporting Station
Clear Clear  
Wind Chill: 14°   Ceiling: Unl
Heat Index: 14°   Visibility: 10mi
Dew Point: -1°   Wind: 5mph
Humidity: 37%   Direction: 50°NE
Pressure: 30.16"   Gusts: NA
Location:  34.1°N, 117.43°W
Report Text: KONT 270753Z 05004KT 10SM CLR 14/M01 A3016 RMK AO2 SLP200 T01391006 403060089
Loading
Personal Weather Stations






























Interactive Weather Map New forecast layout! Learn more

10-Day Weather Forecast

Advertisements
Track Severe Weather on mobile